sensor_id;sensor_type;location;lat;lon;timestamp;pressure;altitude;pressure_sealevel;temperature;humidity
76592;BME280;65481;47.600;19.682;2023-03-14T00:02:55;99627.06;;;5.25;56.10
76592;BME280;65481;47.600;19.682;2023-03-14T00:07:56;99617.78;;;5.23;56.26
76592;BME280;65481;47.600;19.682;2023-03-14T00:12:56;99612.56;;;5.23;56.06
76592;BME280;65481;47.600;19.682;2023-03-14T00:17:57;99603.75;;;5.10;56.52
76592;BME280;65481;47.600;19.682;2023-03-14T00:22:58;99588.88;;;5.04;56.70
76592;BME280;65481;47.600;19.682;2023-03-14T00:27:58;99587.28;;;5.03;56.85
76592;BME280;65481;47.600;19.682;2023-03-14T00:32:58;99581.06;;;4.97;57.18
76592;BME280;65481;47.600;19.682;2023-03-14T00:37:59;99582.06;;;4.96;57.14
76592;BME280;65481;47.600;19.682;2023-03-14T00:42:59;99568.66;;;4.86;57.48
76592;BME280;65481;47.600;19.682;2023-03-14T00:48:00;99568.06;;;4.77;57.87
76592;BME280;65481;47.600;19.682;2023-03-14T00:53:00;99553.00;;;4.66;58.30
76592;BME280;65481;47.600;19.682;2023-03-14T00:58:01;99538.56;;;4.57;58.84
76592;BME280;65481;47.600;19.682;2023-03-14T01:03:02;99539.97;;;4.59;58.56
76592;BME280;65481;47.600;19.682;2023-03-14T01:08:05;99537.16;;;4.61;58.25
76592;BME280;65481;47.600;19.682;2023-03-14T01:13:08;99532.13;;;4.52;59.03
76592;BME280;65481;47.600;19.682;2023-03-14T01:18:08;99523.69;;;4.57;59.03
76592;BME280;65481;47.600;19.682;2023-03-14T01:23:09;99526.72;;;4.61;58.41
76592;BME280;65481;47.600;19.682;2023-03-14T01:28:09;99524.09;;;4.61;58.32
76592;BME280;65481;47.600;19.682;2023-03-14T01:33:10;99509.78;;;4.70;58.12
76592;BME280;65481;47.600;19.682;2023-03-14T01:38:11;99485.47;;;4.69;58.39
76592;BME280;65481;47.600;19.682;2023-03-14T01:43:18;99472.44;;;4.63;58.31
76592;BME280;65481;47.600;19.682;2023-03-14T01:48:19;99469.25;;;4.54;58.79
76592;BME280;65481;47.600;19.682;2023-03-14T01:53:20;99455.19;;;4.48;59.22
76592;BME280;65481;47.600;19.682;2023-03-14T01:58:22;99438.16;;;4.39;59.55
76592;BME280;65481;47.600;19.682;2023-03-14T02:03:26;99438.34;;;4.31;59.30
76592;BME280;65481;47.600;19.682;2023-03-14T02:08:28;99431.34;;;4.31;59.37
76592;BME280;65481;47.600;19.682;2023-03-14T02:13:28;99433.75;;;4.26;59.43
76592;BME280;65481;47.600;19.682;2023-03-14T02:18:29;99429.75;;;4.23;59.15
76592;BME280;65481;47.600;19.682;2023-03-14T02:23:38;99420.50;;;4.21;59.09
76592;BME280;65481;47.600;19.682;2023-03-14T02:28:44;99412.69;;;4.14;59.62
76592;BME280;65481;47.600;19.682;2023-03-14T02:33:44;99393.84;;;4.05;59.86
76592;BME280;65481;47.600;19.682;2023-03-14T02:39:37;99393.84;;;4.05;59.82
76592;BME280;65481;47.600;19.682;2023-03-14T02:50:10;99385.84;;;3.93;61.12
76592;BME280;65481;47.600;19.682;2023-03-14T02:55:12;99375.81;;;3.84;62.39
76592;BME280;65481;47.600;19.682;2023-03-14T03:00:13;99370.59;;;3.84;62.45
76592;BME280;65481;47.600;19.682;2023-03-14T03:05:15;99367.81;;;3.78;63.04
76592;BME280;65481;47.600;19.682;2023-03-14T03:10:15;99364.38;;;3.85;62.99
76592;BME280;65481;47.600;19.682;2023-03-14T03:15:16;99370.19;;;3.87;63.36
76592;BME280;65481;47.600;19.682;2023-03-14T03:20:17;99359.38;;;3.83;63.79
76592;BME280;65481;47.600;19.682;2023-03-14T03:25:17;99341.16;;;3.70;64.36
76592;BME280;65481;47.600;19.682;2023-03-14T03:30:18;99348.94;;;3.76;64.20
76592;BME280;65481;47.600;19.682;2023-03-14T03:35:19;99344.72;;;3.82;64.78
76592;BME280;65481;47.600;19.682;2023-03-14T03:40:19;99340.13;;;3.77;64.88
76592;BME280;65481;47.600;19.682;2023-03-14T03:45:19;99336.47;;;3.85;65.00
76592;BME280;65481;47.600;19.682;2023-03-14T03:50:20;99322.44;;;3.86;65.40
76592;BME280;65481;47.600;19.682;2023-03-14T03:55:21;99317.81;;;3.88;65.45
76592;BME280;65481;47.600;19.682;2023-03-14T04:00:21;99317.19;;;3.93;65.42
76592;BME280;65481;47.600;19.682;2023-03-14T04:05:42;99315.34;;;4.07;65.54
76592;BME280;65481;47.600;19.682;2023-03-14T04:10:43;99312.88;;;4.19;64.96
76592;BME280;65481;47.600;19.682;2023-03-14T04:15:43;99325.44;;;4.35;64.80
76592;BME280;65481;47.600;19.682;2023-03-14T04:20:44;99324.16;;;4.51;64.12
76592;BME280;65481;47.600;19.682;2023-03-14T04:25:44;99308.97;;;4.67;63.35
76592;BME280;65481;47.600;19.682;2023-03-14T04:30:45;99298.06;;;4.77;63.13
76592;BME280;65481;47.600;19.682;2023-03-14T04:35:46;99295.97;;;4.85;63.04
76592;BME280;65481;47.600;19.682;2023-03-14T04:40:47;99291.09;;;4.96;62.33
76592;BME280;65481;47.600;19.682;2023-03-14T04:45:47;99293.28;;;4.99;62.69
76592;BME280;65481;47.600;19.682;2023-03-14T04:50:48;99279.78;;;5.02;63.02
76592;BME280;65481;47.600;19.682;2023-03-14T04:55:50;99280.69;;;5.14;62.68
76592;BME280;65481;47.600;19.682;2023-03-14T05:00:50;99274.38;;;5.22;62.43
76592;BME280;65481;47.600;19.682;2023-03-14T05:05:51;99274.06;;;5.30;62.17
76592;BME280;65481;47.600;19.682;2023-03-14T05:10:56;99256.81;;;5.29;62.07
76592;BME280;65481;47.600;19.682;2023-03-14T05:16:07;99252.34;;;5.30;62.30
76592;BME280;65481;47.600;19.682;2023-03-14T05:21:08;99235.50;;;5.26;62.68
76592;BME280;65481;47.600;19.682;2023-03-14T05:26:09;99241.09;;;5.29;62.85
76592;BME280;65481;47.600;19.682;2023-03-14T05:31:09;99245.53;;;5.29;63.01
76592;BME280;65481;47.600;19.682;2023-03-14T05:36:10;99246.34;;;5.29;63.13
76592;BME280;65481;47.600;19.682;2023-03-14T05:41:10;99252.88;;;5.39;63.26
76592;BME280;65481;47.600;19.682;2023-03-14T05:46:11;99250.31;;;5.32;63.93
76592;BME280;65481;47.600;19.682;2023-03-14T05:51:11;99260.50;;;5.40;64.07
76592;BME280;65481;47.600;19.682;2023-03-14T05:56:12;99259.34;;;5.55;63.86
76592;BME280;65481;47.600;19.682;2023-03-14T06:01:12;99257.00;;;5.65;64.01
76592;BME280;65481;47.600;19.682;2023-03-14T06:06:13;99253.88;;;5.75;64.07
76592;BME280;65481;47.600;19.682;2023-03-14T06:11:13;99257.66;;;5.98;63.46
76592;BME280;65481;47.600;19.682;2023-03-14T06:16:14;99261.72;;;6.12;63.75
76592;BME280;65481;47.600;19.682;2023-03-14T06:21:15;99249.81;;;6.28;62.95
76592;BME280;65481;47.600;19.682;2023-03-14T06:26:16;99242.25;;;6.62;60.94
76592;BME280;65481;47.600;19.682;2023-03-14T06:31:17;99247.72;;;7.44;58.13
76592;BME280;65481;47.600;19.682;2023-03-14T06:36:18;99240.22;;;8.34;55.98
76592;BME280;65481;47.600;19.682;2023-03-14T06:41:18;99234.53;;;8.89;54.06
76592;BME280;65481;47.600;19.682;2023-03-14T06:46:18;99240.72;;;9.17;52.50
76592;BME280;65481;47.600;19.682;2023-03-14T06:51:19;99251.50;;;10.32;49.12
76592;BME280;65481;47.600;19.682;2023-03-14T06:56:20;99238.16;;;11.19;45.59
76592;BME280;65481;47.600;19.682;2023-03-14T07:01:24;99240.81;;;11.77;43.69
76592;BME280;65481;47.600;19.682;2023-03-14T07:06:25;99229.28;;;12.56;42.70
76592;BME280;65481;47.600;19.682;2023-03-14T07:11:26;99223.69;;;13.04;41.68
76592;BME280;65481;47.600;19.682;2023-03-14T07:16:26;99216.69;;;13.34;41.17
76592;BME280;65481;47.600;19.682;2023-03-14T07:21:29;99223.22;;;13.62;39.59
76592;BME280;65481;47.600;19.682;2023-03-14T07:26:29;99215.25;;;13.68;39.74
76592;BME280;65481;47.600;19.682;2023-03-14T07:31:30;99220.69;;;13.92;39.38
76592;BME280;65481;47.600;19.682;2023-03-14T07:36:30;99216.53;;;14.20;38.74
76592;BME280;65481;47.600;19.682;2023-03-14T07:41:31;99217.78;;;15.22;37.33
76592;BME280;65481;47.600;19.682;2023-03-14T07:46:32;99208.00;;;15.80;36.33
76592;BME280;65481;47.600;19.682;2023-03-14T07:51:33;99202.53;;;16.09;36.10
76592;BME280;65481;47.600;19.682;2023-03-14T07:56:33;99208.25;;;16.83;34.91
76592;BME280;65481;47.600;19.682;2023-03-14T08:01:34;99197.84;;;17.14;34.05
76592;BME280;65481;47.600;19.682;2023-03-14T08:06:35;99177.34;;;17.65;33.02
76592;BME280;65481;47.600;19.682;2023-03-14T08:11:36;99177.34;;;18.25;32.41
76592;BME280;65481;47.600;19.682;2023-03-14T08:16:36;99159.97;;;18.68;31.57
76592;BME280;65481;47.600;19.682;2023-03-14T08:21:37;99153.06;;;18.75;31.20
76592;BME280;65481;47.600;19.682;2023-03-14T08:26:37;99137.88;;;18.44;31.52
76592;BME280;65481;47.600;19.682;2023-03-14T08:31:38;99142.38;;;19.16;31.13
76592;BME280;65481;47.600;19.682;2023-03-14T08:36:38;99125.56;;;19.15;30.96
76592;BME280;65481;47.600;19.682;2023-03-14T08:41:39;99123.41;;;19.44;30.50
76592;BME280;65481;47.600;19.682;2023-03-14T08:46:43;99122.38;;;20.27;29.72
76592;BME280;65481;47.600;19.682;2023-03-14T08:51:44;99127.22;;;20.73;29.42
76592;BME280;65481;47.600;19.682;2023-03-14T08:56:44;99116.66;;;20.85;28.50
76592;BME280;65481;47.600;19.682;2023-03-14T09:01:45;99125.25;;;21.21;28.18
76592;BME280;65481;47.600;19.682;2023-03-14T09:06:46;99102.25;;;21.41;28.17
76592;BME280;65481;47.600;19.682;2023-03-14T09:11:46;99107.53;;;21.71;27.64
76592;BME280;65481;47.600;19.682;2023-03-14T09:16:46;99085.03;;;21.97;27.49
76592;BME280;65481;47.600;19.682;2023-03-14T09:21:47;99081.03;;;22.16;27.04
76592;BME280;65481;47.600;19.682;2023-03-14T09:26:47;99074.19;;;22.31;27.63
76592;BME280;65481;47.600;19.682;2023-03-14T09:31:48;99079.50;;;21.93;27.07
76592;BME280;65481;47.600;19.682;2023-03-14T09:36:48;99059.19;;;22.92;26.34
76592;BME280;65481;47.600;19.682;2023-03-14T09:41:51;99035.94;;;23.12;26.72
76592;BME280;65481;47.600;19.682;2023-03-14T09:46:57;99033.69;;;23.26;26.21
76592;BME280;65481;47.600;19.682;2023-03-14T09:52:01;99038.03;;;23.75;26.17
76592;BME280;65481;47.600;19.682;2023-03-14T09:57:04;99019.75;;;23.97;26.03
76592;BME280;65481;47.600;19.682;2023-03-14T10:02:17;99016.78;;;23.86;25.82
76592;BME280;65481;47.600;19.682;2023-03-14T10:07:30;99008.84;;;23.62;26.67
76592;BME280;65481;47.600;19.682;2023-03-14T10:12:36;98994.53;;;23.89;25.62
76592;BME280;65481;47.600;19.682;2023-03-14T10:17:47;98998.44;;;22.50;26.52
76592;BME280;65481;47.600;19.682;2023-03-14T10:22:50;98967.84;;;22.30;27.11
76592;BME280;65481;47.600;19.682;2023-03-14T10:27:51;98961.53;;;23.61;26.65
76592;BME280;65481;47.600;19.682;2023-03-14T10:32:51;98963.34;;;23.88;26.26
76592;BME280;65481;47.600;19.682;2023-03-14T10:38:02;98960.50;;;23.97;25.97
76592;BME280;65481;47.600;19.682;2023-03-14T10:43:05;98942.34;;;24.46;25.78
76592;BME280;65481;47.600;19.682;2023-03-14T10:53:19;98929.09;;;24.21;26.19
76592;BME280;65481;47.600;19.682;2023-03-14T10:58:26;98928.41;;;24.08;25.65
76592;BME280;65481;47.600;19.682;2023-03-14T11:03:30;98915.25;;;24.23;26.09
76592;BME280;65481;47.600;19.682;2023-03-14T11:13:48;98897.66;;;23.93;26.41
76592;BME280;65481;47.600;19.682;2023-03-14T11:29:28;98854.16;;;22.66;27.70
76592;BME280;65481;47.600;19.682;2023-03-14T11:34:55;98843.84;;;23.61;27.35
76592;BME280;65481;47.600;19.682;2023-03-14T11:40:13;98839.50;;;23.92;27.00
76592;BME280;65481;47.600;19.682;2023-03-14T11:45:17;98825.59;;;24.06;26.51
76592;BME280;65481;47.600;19.682;2023-03-14T11:50:24;98824.16;;;23.93;26.88
76592;BME280;65481;47.600;19.682;2023-03-14T11:55:36;98821.94;;;24.34;26.26
76592;BME280;65481;47.600;19.682;2023-03-14T12:00:38;98800.31;;;24.93;26.01
76592;BME280;65481;47.600;19.682;2023-03-14T12:11:02;98790.44;;;24.38;26.79
76592;BME280;65481;47.600;19.682;2023-03-14T12:16:06;98780.88;;;23.66;26.79
76592;BME280;65481;47.600;19.682;2023-03-14T12:21:10;98780.75;;;23.42;27.15
76592;BME280;65481;47.600;19.682;2023-03-14T12:26:15;98770.63;;;22.59;27.97
76592;BME280;65481;47.600;19.682;2023-03-14T13:03:26;98719.47;;;21.33;30.57
76592;BME280;65481;47.600;19.682;2023-03-14T13:13:52;98701.94;;;20.86;30.68
76592;BME280;65481;47.600;19.682;2023-03-14T13:19:14;98705.69;;;20.72;30.91
76592;BME280;65481;47.600;19.682;2023-03-14T13:24:25;98680.41;;;20.49;30.77
76592;BME280;65481;47.600;19.682;2023-03-14T13:29:30;98692.00;;;20.40;31.37
76592;BME280;65481;47.600;19.682;2023-03-14T13:34:34;98676.16;;;20.35;31.63
76592;BME280;65481;47.600;19.682;2023-03-14T13:39:39;98684.53;;;20.34;31.77
76592;BME280;65481;47.600;19.682;2023-03-14T13:44:40;98674.84;;;20.41;31.66
76592;BME280;65481;47.600;19.682;2023-03-14T13:49:40;98684.28;;;20.39;31.95
76592;BME280;65481;47.600;19.682;2023-03-14T13:54:41;98680.22;;;20.20;31.87
76592;BME280;65481;47.600;19.682;2023-03-14T13:59:42;98669.22;;;20.01;31.83
76592;BME280;65481;47.600;19.682;2023-03-14T14:04:42;98686.28;;;19.96;31.78
76592;BME280;65481;47.600;19.682;2023-03-14T14:09:46;98692.78;;;19.86;32.52
76592;BME280;65481;47.600;19.682;2023-03-14T14:20:34;98690.06;;;19.52;32.63
76592;BME280;65481;47.600;19.682;2023-03-14T14:25:36;98692.13;;;19.47;32.69
76592;BME280;65481;47.600;19.682;2023-03-14T14:30:37;98681.81;;;19.36;32.66
76592;BME280;65481;47.600;19.682;2023-03-14T14:35:37;98690.16;;;19.35;32.39
76592;BME280;65481;47.600;19.682;2023-03-14T14:40:44;98687.16;;;19.36;32.61
76592;BME280;65481;47.600;19.682;2023-03-14T14:45:48;98675.53;;;19.32;32.50
76592;BME280;65481;47.600;19.682;2023-03-14T14:51:00;98682.63;;;19.28;32.50
76592;BME280;65481;47.600;19.682;2023-03-14T14:56:20;98685.41;;;19.11;32.88
76592;BME280;65481;47.600;19.682;2023-03-14T15:01:26;98686.88;;;18.90;32.96
76592;BME280;65481;47.600;19.682;2023-03-14T15:06:31;98690.41;;;18.73;33.00
76592;BME280;65481;47.600;19.682;2023-03-14T15:11:31;98690.44;;;18.56;33.41
76592;BME280;65481;47.600;19.682;2023-03-14T15:16:32;98690.50;;;18.38;33.70
76592;BME280;65481;47.600;19.682;2023-03-14T15:21:33;98696.19;;;18.19;33.92
76592;BME280;65481;47.600;19.682;2023-03-14T15:26:33;98690.53;;;18.12;34.18
76592;BME280;65481;47.600;19.682;2023-03-14T15:31:34;98690.25;;;18.05;34.37
76592;BME280;65481;47.600;19.682;2023-03-14T15:36:36;98688.16;;;17.93;34.73
76592;BME280;65481;47.600;19.682;2023-03-14T15:41:37;98689.41;;;17.86;35.06
76592;BME280;65481;47.600;19.682;2023-03-14T15:46:38;98693.66;;;17.79;35.39
76592;BME280;65481;47.600;19.682;2023-03-14T15:51:38;98677.97;;;17.77;35.14
76592;BME280;65481;47.600;19.682;2023-03-14T15:56:39;98675.47;;;17.72;35.21
76592;BME280;65481;47.600;19.682;2023-03-14T16:01:39;98682.66;;;17.71;35.19
76592;BME280;65481;47.600;19.682;2023-03-14T16:06:40;98691.13;;;17.65;35.31
76592;BME280;65481;47.600;19.682;2023-03-14T16:11:41;98682.66;;;17.63;35.67
76592;BME280;65481;47.600;19.682;2023-03-14T16:16:41;98686.59;;;17.56;35.51
76592;BME280;65481;47.600;19.682;2023-03-14T16:21:41;98697.25;;;17.48;35.81
76592;BME280;65481;47.600;19.682;2023-03-14T16:26:42;98695.16;;;17.36;35.90
76592;BME280;65481;47.600;19.682;2023-03-14T16:31:44;98703.28;;;17.22;36.21
76592;BME280;65481;47.600;19.682;2023-03-14T16:36:44;98704.81;;;17.05;36.48
76592;BME280;65481;47.600;19.682;2023-03-14T16:41:47;98711.66;;;16.98;36.98
76592;BME280;65481;47.600;19.682;2023-03-14T16:46:47;98745.75;;;16.87;37.23
76592;BME280;65481;47.600;19.682;2023-03-14T16:51:47;98766.78;;;16.65;38.14
76592;BME280;65481;47.600;19.682;2023-03-14T16:56:48;98777.81;;;16.50;42.45
76592;BME280;65481;47.600;19.682;2023-03-14T17:01:51;98786.28;;;16.15;48.85
76592;BME280;65481;47.600;19.682;2023-03-14T17:06:51;98801.09;;;15.80;52.37
76592;BME280;65481;47.600;19.682;2023-03-14T17:11:52;98815.41;;;15.42;56.78
76592;BME280;65481;47.600;19.682;2023-03-14T17:16:55;98819.72;;;15.24;59.42
76592;BME280;65481;47.600;19.682;2023-03-14T17:21:55;98832.09;;;15.14;60.44
76592;BME280;65481;47.600;19.682;2023-03-14T17:26:56;98842.28;;;15.07;61.50
76592;BME280;65481;47.600;19.682;2023-03-14T17:31:56;98849.94;;;14.95;62.65
76592;BME280;65481;47.600;19.682;2023-03-14T17:36:57;98850.75;;;14.76;65.06
76592;BME280;65481;47.600;19.682;2023-03-14T17:41:58;98864.31;;;14.56;68.03
76592;BME280;65481;47.600;19.682;2023-03-14T17:46:59;98880.22;;;14.36;71.07
76592;BME280;65481;47.600;19.682;2023-03-14T17:52:01;98875.84;;;14.27;73.12
76592;BME280;65481;47.600;19.682;2023-03-14T17:57:02;98880.69;;;14.19;74.81
76592;BME280;65481;47.600;19.682;2023-03-14T18:02:03;98880.38;;;14.02;78.06
76592;BME280;65481;47.600;19.682;2023-03-14T18:07:05;98887.75;;;13.86;82.94
76592;BME280;65481;47.600;19.682;2023-03-14T18:12:06;98884.22;;;13.66;89.60
76592;BME280;65481;47.600;19.682;2023-03-14T18:17:07;98890.69;;;13.55;95.24
76592;BME280;65481;47.600;19.682;2023-03-14T18:22:12;98895.00;;;13.51;99.25
76592;BME280;65481;47.600;19.682;2023-03-14T18:27:13;98897.69;;;13.45;100.00
76592;BME280;65481;47.600;19.682;2023-03-14T18:32:16;98898.97;;;13.48;100.00
76592;BME280;65481;47.600;19.682;2023-03-14T18:37:17;98888.91;;;13.45;100.00
76592;BME280;65481;47.600;19.682;2023-03-14T18:42:18;98897.47;;;13.37;100.00
76592;BME280;65481;47.600;19.682;2023-03-14T18:47:21;98907.81;;;13.33;100.00
76592;BME280;65481;47.600;19.682;2023-03-14T18:52:25;98894.06;;;13.31;100.00
76592;BME280;65481;47.600;19.682;2023-03-14T18:57:26;98893.50;;;13.34;100.00
76592;BME280;65481;47.600;19.682;2023-03-14T19:02:27;98886.38;;;13.29;100.00
76592;BME280;65481;47.600;19.682;2023-03-14T19:07:28;98872.72;;;13.17;100.00
76592;BME280;65481;47.600;19.682;2023-03-14T19:12:29;98876.81;;;13.04;100.00
76592;BME280;65481;47.600;19.682;2023-03-14T19:17:30;98864.72;;;12.93;100.00
76592;BME280;65481;47.600;19.682;2023-03-14T19:22:31;98872.72;;;12.82;100.00
76592;BME280;65481;47.600;19.682;2023-03-14T19:27:32;98869.81;;;12.84;100.00
76592;BME280;65481;47.600;19.682;2023-03-14T19:32:36;98871.41;;;12.85;100.00
76592;BME280;65481;47.600;19.682;2023-03-14T19:37:37;98860.28;;;12.83;100.00
76592;BME280;65481;47.600;19.682;2023-03-14T19:42:38;98863.28;;;12.71;100.00
76592;BME280;65481;47.600;19.682;2023-03-14T19:47:40;98866.25;;;12.59;100.00
76592;BME280;65481;47.600;19.682;2023-03-14T19:52:41;98863.13;;;12.52;100.00
76592;BME280;65481;47.600;19.682;2023-03-14T19:57:48;98857.06;;;12.51;100.00
76592;BME280;65481;47.600;19.682;2023-03-14T20:02:50;98870.81;;;12.48;100.00
76592;BME280;65481;47.600;19.682;2023-03-14T20:07:52;98886.38;;;12.55;100.00
76592;BME280;65481;47.600;19.682;2023-03-14T20:12:53;98870.59;;;12.39;100.00
76592;BME280;65481;47.600;19.682;2023-03-14T20:17:54;98882.53;;;12.37;100.00
76592;BME280;65481;47.600;19.682;2023-03-14T20:22:56;98887.56;;;12.33;100.00
76592;BME280;65481;47.600;19.682;2023-03-14T20:27:57;98880.75;;;12.22;100.00
76592;BME280;65481;47.600;19.682;2023-03-14T20:32:58;98874.94;;;12.20;100.00
76592;BME280;65481;47.600;19.682;2023-03-14T20:38:03;98865.41;;;12.24;100.00
76592;BME280;65481;47.600;19.682;2023-03-14T20:43:05;98863.00;;;12.27;100.00
76592;BME280;65481;47.600;19.682;2023-03-14T20:48:07;98859.34;;;12.18;100.00
76592;BME280;65481;47.600;19.682;2023-03-14T20:53:08;98861.00;;;12.04;100.00
76592;BME280;65481;47.600;19.682;2023-03-14T20:58:12;98870.78;;;12.03;100.00
76592;BME280;65481;47.600;19.682;2023-03-14T21:03:13;98879.22;;;12.00;100.00
76592;BME280;65481;47.600;19.682;2023-03-14T21:08:17;98889.81;;;11.90;100.00
76592;BME280;65481;47.600;19.682;2023-03-14T21:13:20;98877.69;;;11.78;100.00
76592;BME280;65481;47.600;19.682;2023-03-14T21:18:21;98887.19;;;11.79;100.00
76592;BME280;65481;47.600;19.682;2023-03-14T21:23:22;98890.13;;;11.83;100.00
76592;BME280;65481;47.600;19.682;2023-03-14T21:28:26;98891.16;;;11.77;100.00
76592;BME280;65481;47.600;19.682;2023-03-14T21:33:27;98898.31;;;11.71;100.00
76592;BME280;65481;47.600;19.682;2023-03-14T21:38:28;98895.44;;;11.62;100.00
76592;BME280;65481;47.600;19.682;2023-03-14T21:43:28;98907.34;;;11.55;100.00
76592;BME280;65481;47.600;19.682;2023-03-14T21:48:29;98906.03;;;11.42;100.00
76592;BME280;65481;47.600;19.682;2023-03-14T21:53:31;98919.22;;;11.57;100.00
76592;BME280;65481;47.600;19.682;2023-03-14T21:58:32;98911.25;;;11.73;100.00
76592;BME280;65481;47.600;19.682;2023-03-14T22:03:34;98919.72;;;11.70;100.00
76592;BME280;65481;47.600;19.682;2023-03-14T22:08:35;98922.88;;;11.72;100.00
76592;BME280;65481;47.600;19.682;2023-03-14T22:13:35;98933.72;;;11.75;100.00
76592;BME280;65481;47.600;19.682;2023-03-14T22:18:37;98933.44;;;11.77;100.00
76592;BME280;65481;47.600;19.682;2023-03-14T22:23:37;98945.06;;;11.71;100.00
76592;BME280;65481;47.600;19.682;2023-03-14T22:28:38;98942.75;;;11.59;100.00
76592;BME280;65481;47.600;19.682;2023-03-14T22:33:38;98935.09;;;11.47;100.00
76592;BME280;65481;47.600;19.682;2023-03-14T22:38:39;98926.38;;;11.36;100.00
76592;BME280;65481;47.600;19.682;2023-03-14T22:43:39;98936.66;;;11.27;100.00
76592;BME280;65481;47.600;19.682;2023-03-14T22:48:40;98941.66;;;11.24;100.00
76592;BME280;65481;47.600;19.682;2023-03-14T22:53:40;98946.41;;;11.27;100.00
76592;BME280;65481;47.600;19.682;2023-03-14T22:58:41;98936.94;;;11.20;100.00
76592;BME280;65481;47.600;19.682;2023-03-14T23:03:41;98944.81;;;11.05;100.00
76592;BME280;65481;47.600;19.682;2023-03-14T23:08:42;98951.69;;;10.96;100.00
76592;BME280;65481;47.600;19.682;2023-03-14T23:13:42;98946.91;;;10.93;100.00
76592;BME280;65481;47.600;19.682;2023-03-14T23:18:43;98935.59;;;11.02;100.00
76592;BME280;65481;47.600;19.682;2023-03-14T23:23:46;98932.94;;;10.92;100.00
76592;BME280;65481;47.600;19.682;2023-03-14T23:28:48;98942.41;;;10.83;100.00
76592;BME280;65481;47.600;19.682;2023-03-14T23:33:49;98952.69;;;10.79;100.00
76592;BME280;65481;47.600;19.682;2023-03-14T23:38:49;98955.84;;;10.76;100.00
76592;BME280;65481;47.600;19.682;2023-03-14T23:43:50;98958.75;;;10.69;100.00
76592;BME280;65481;47.600;19.682;2023-03-14T23:48:50;98961.88;;;10.61;100.00
76592;BME280;65481;47.600;19.682;2023-03-14T23:53:51;98954.19;;;10.54;100.00
76592;BME280;65481;47.600;19.682;2023-03-14T23:58:52;98944.63;;;10.38;100.00
